»·PEaware :: SWA511 KSFO-KLAX

SWA511 :: KSFO-KLAX

FLIGHT INFORMATION

Flight Status: Arrived
Operator:
Southwest Airlines
More flights by this operator :: More flights under this callsign
Pilot: Dave M. (4986)
Aircraft: BOEING 737-800
(B738)
More flights by this aircraft type
Origin: KSFO San Francisco Intl
United States
Destination: KLAX Los Angeles Intl
United States
More flights between these airports :: More routes between these airports
Route: +SSTIK3 EBAYE BURGL IRNMN1
File this flight plan on PilotEdge
Remarks: PBN / A1B1C1D1S1S2 NAV / RNVD1E2A1 REG / N8645A EET / KZLA0023 RMK / SIMBRIEF
Altitude:
(Current/Filed)
31,000ft
Speed:
(Current/Filed)
473kts
Departed: 16-Apr-18 06:15 PM
Arrived: 16-Apr-18 07:10 PM
Distance/Time
Traveled:
293nm/0:55
Distance/Time
To Go:
Arrived

Flight Plot

Page will automatically refresh every two minutes.

Flight plan parsing failed; only flown route is shown


Map Options




Map Legend


Flown Route
Filed Route
Departure Airport
Arrival Airport
Navaid (VOR, NDB)
Fix

Horizontal Profiles

Position Reports

Time Latitude Longitude Heading Altitude Ground
Speed
16-Apr-18 17:54 37.612630 -122.384671 6 19ft 0kts
16-Apr-18 17:55 37.612630 -122.384671 6 19ft 0kts
16-Apr-18 17:56 37.612630 -122.384671 6 19ft 0kts
16-Apr-18 17:57 37.612630 -122.384671 6 19ft 0kts
16-Apr-18 17:58 37.612630 -122.384671 6 19ft 0kts
16-Apr-18 17:59 37.612630 -122.384671 6 19ft 0kts
16-Apr-18 18:00 37.612630 -122.384671 6 19ft 0kts
16-Apr-18 18:01 37.612370 -122.384704 5 19ft 4kts
16-Apr-18 18:02 37.611689 -122.384777 4 19ft 0kts
16-Apr-18 18:03 37.611689 -122.384778 4 19ft 0kts
16-Apr-18 18:04 37.611689 -122.384778 4 19ft 0kts
16-Apr-18 18:05 37.611689 -122.384778 4 19ft 0kts
16-Apr-18 18:06 37.611689 -122.384778 4 19ft 0kts
16-Apr-18 18:07 37.611689 -122.384778 4 19ft 0kts
16-Apr-18 18:11 37.611498 -122.384293 121 19ft 0kts
16-Apr-18 18:12 37.610471 -122.383742 207 19ft 6kts
16-Apr-18 18:13 37.608668 -122.384349 123 19ft 13kts
16-Apr-18 18:14 37.627283 -122.369532 25 327ft 196kts
16-Apr-18 18:15 37.682561 -122.363264 315 3231ft 242kts
16-Apr-18 18:16 37.669176 -122.434813 214 6682ft 268kts
16-Apr-18 18:17 37.598990 -122.454088 192 9819ft 290kts
16-Apr-18 18:18 37.516854 -122.468612 182 12277ft 331kts
16-Apr-18 18:19 37.437241 -122.410429 131 15034ft 363kts
16-Apr-18 18:20 37.368692 -122.313138 133 17716ft 382kts
16-Apr-18 18:21 37.295773 -122.213188 134 20201ft 399kts
16-Apr-18 18:22 37.218891 -122.108790 135 22509ft 415kts
16-Apr-18 18:23 37.139231 -122.001215 135 24616ft 430kts
16-Apr-18 18:24 37.056192 -121.889569 136 26344ft 450kts
16-Apr-18 18:25 36.968867 -121.772665 138 27835ft 471kts
16-Apr-18 18:26 36.879193 -121.653095 138 29683ft 478kts
16-Apr-18 18:27 36.788497 -121.532657 139 31147ft 487kts
16-Apr-18 18:28 36.692602 -121.406103 138 31158ft 521kts
16-Apr-18 18:29 36.594933 -121.277314 139 31137ft 524kts
16-Apr-18 18:30 36.494985 -121.145876 140 31140ft 519kts
16-Apr-18 18:31 36.398541 -121.016465 138 31133ft 508kts
16-Apr-18 18:32 36.307830 -120.885673 139 31111ft 501kts
16-Apr-18 18:33 36.217897 -120.756738 139 31110ft 500kts
16-Apr-18 18:34 36.126949 -120.626959 139 31113ft 501kts
16-Apr-18 18:35 36.035610 -120.497179 139 31116ft 501kts
16-Apr-18 18:36 35.944482 -120.368234 139 31117ft 500kts
16-Apr-18 18:37 35.860641 -120.253729 150 31094ft 487kts
16-Apr-18 18:38 35.748928 -120.167638 158 31110ft 475kts
16-Apr-18 18:39 35.636451 -120.083782 158 31108ft 475kts
16-Apr-18 18:40 35.523987 -119.999394 158 31110ft 475kts
16-Apr-18 18:41 35.412015 -119.915484 158 31127ft 476kts
16-Apr-18 18:42 35.299990 -119.831730 158 31133ft 474kts
16-Apr-18 18:43 35.195013 -119.737290 152 31143ft 485kts
16-Apr-18 18:44 35.088441 -119.637820 151 31116ft 484kts
16-Apr-18 18:45 34.984140 -119.540536 152 30775ft 457kts
16-Apr-18 18:46 34.887149 -119.451024 153 28492ft 448kts
16-Apr-18 18:47 34.788089 -119.362344 152 26410ft 438kts
16-Apr-18 18:48 34.693999 -119.278953 153 24405ft 418kts
16-Apr-18 18:49 34.599964 -119.197292 153 22443ft 413kts
16-Apr-18 18:50 34.507893 -119.116774 151 20513ft 403kts
16-Apr-18 18:51 34.418772 -119.038201 151 18640ft 392kts
16-Apr-18 18:52 34.332312 -118.963042 150 16725ft 375kts
16-Apr-18 18:53 34.251443 -118.889628 150 14904ft 356kts
16-Apr-18 18:54 34.174563 -118.818964 150 13179ft 339kts
16-Apr-18 18:55 34.104945 -118.745854 145 11684ft 324kts
16-Apr-18 18:56 34.040271 -118.674489 136 10294ft 313kts
16-Apr-18 18:57 34.020344 -118.590352 99 9053ft 306kts
16-Apr-18 18:58 34.011518 -118.485722 99 7676ft 250kts
16-Apr-18 18:59 34.015744 -118.405487 76 6632ft 240kts
16-Apr-18 19:00 34.028393 -118.329514 83 5930ft 212kts
16-Apr-18 19:01 34.036232 -118.258843 82 5998ft 219kts
16-Apr-18 19:02 34.037870 -118.184745 121 5330ft 232kts
16-Apr-18 19:03 33.994023 -118.173964 241 4526ft 162kts
16-Apr-18 19:04 33.976253 -118.227024 248 3289ft 176kts
16-Apr-18 19:05 33.964147 -118.281545 266 2188ft 149kts
16-Apr-18 19:06 33.959260 -118.332932 266 1358ft 166kts
16-Apr-18 19:07 33.954160 -118.382581 262 394ft 128kts
16-Apr-18 19:08 33.950731 -118.415577 261 110ft 43kts
16-Apr-18 19:09 33.949410 -118.419216 234 110ft 0kts
16-Apr-18 19:10 33.947030 -118.422330 135 110ft 8kts
16-Apr-18 19:11 33.947442 -118.416333 82 110ft 29kts
16-Apr-18 19:12 33.948712 -118.405410 83 110ft 34kts
16-Apr-18 19:13 33.947400 -118.401892 111 110ft 0kts

Navigation Log

Ident Type
Flight plan parsing failed, navigation log unavailable